PWSweather.com
Personal Weather Stations
Station Observations
IMAZOWIE6
WarszawaPL

WarszawaPL

Lat: 52.27957, Lon: 21.05489

Elevation: 100

Station Type: WS1080

http://stacjapogody.waw.pl/

High Low Average
Temperature 45.1°F7.3°C 35.8°F2.1°C 37.0°F2.8°C
Dew Point 25.9°F-3.4°C 8.0°F-13.3°C 14.1°F-9.9°C
Winds 1.4 mph 2.3 kmh Calm Calm Calm NCalm N
Wind Gusts 2.8 mph4.5 kmh -- --
Humidity 48% 31% 39%
Pressure 29.89 in1012.2 mb 29.66 in1004.4 mb -
Precipitation 0.00 in0.0 mm - -
Hour Temp Dew Point Humidity Winds Wind Gusts Pressure Precip Precip Rate Daily Precip Total
12:03 AM 35.8°F2.1°C 15.8°F-9.0°C 44% 1.4 mph N2.3 kmh N 2.8 mph4.5 kmh 29.66 in1004.4 mb 0.01 in0.3 mm 0.25 in6.4 mm 0.01 in0.3 mm
12:18 AM 36.0°F2.2°C 15.9°F-8.9°C 44% Calm Calm 2.0 mph3.2 kmh 29.67 in1004.7 mb 0.00 in0.0 mm 0.00 in0.0 mm 0.01 in0.3 mm
12:33 AM 36.0°F2.2°C 15.9°F-8.9°C 44% Calm Calm 2.8 mph4.5 kmh 29.67 in1004.7 mb 0.00 in0.0 mm 0.00 in0.0 mm 0.01 in0.3 mm
12:48 AM 36.1°F2.3°C 16.1°F-8.8°C 44% Calm Calm 2.8 mph4.5 kmh 29.67 in1004.7 mb 0.01 in0.3 mm 0.05 in1.3 mm 0.02 in0.5 mm
01:08 AM 36.1°F2.3°C 16.1°F-8.8°C 44% Calm Calm 2.0 mph3.2 kmh 29.67 in1004.7 mb 0.01 in0.3 mm 0.00 in0.0 mm 0.02 in0.5 mm
01:18 AM 36.1°F2.3°C 16.1°F-8.8°C 44% Calm Calm 0.6 mph1.0 kmh 29.68 in1005.1 mb 0.00 in0.0 mm 0.00 in0.0 mm 0.02 in0.5 mm
01:33 AM 36.0°F2.2°C 15.9°F-8.9°C 44% Calm Calm 0.6 mph1.0 kmh 29.68 in1005.1 mb 0.00 in0.0 mm 0.00 in0.0 mm 0.02 in0.5 mm
01:48 AM 36.1°F2.3°C 16.1°F-8.8°C 44% Calm Calm -- 29.68 in1005.1 mb 0.00 in0.0 mm 0.00 in0.0 mm 0.02 in0.5 mm
02:03 AM 36.1°F2.3°C 16.1°F-8.8°C 44% Calm Calm -- 29.69 in1005.4 mb 0.01 in0.3 mm 0.02 in0.5 mm 0.04 in1.0 mm
02:18 AM 36.1°F2.3°C 16.1°F-8.8°C 44% Calm Calm 0.6 mph1.0 kmh 29.69 in1005.4 mb 0.00 in0.0 mm 0.00 in0.0 mm 0.04 in1.0 mm
02:33 AM 36.1°F2.3°C 16.1°F-8.8°C 44% Calm Calm -- 29.69 in1005.4 mb 0.00 in0.0 mm 0.00 in0.0 mm 0.04 in1.0 mm
02:48 AM 36.1°F2.3°C 16.1°F-8.8°C 44% Calm Calm 0.6 mph1.0 kmh 29.69 in1005.4 mb 0.00 in0.0 mm 0.00 in0.0 mm 0.04 in1.0 mm
03:03 AM 36.0°F2.2°C 15.9°F-8.9°C 44% Calm Calm 2.8 mph4.5 kmh 29.70 in1005.8 mb 0.00 in0.0 mm 0.00 in0.0 mm 0.04 in1.0 mm
03:18 AM 36.3°F2.4°C 16.3°F-8.7°C 44% Calm Calm -- 29.70 in1005.8 mb 0.00 in0.0 mm 0.00 in0.0 mm 0.04 in1.0 mm
03:33 AM 36.1°F2.3°C 16.1°F-8.8°C 44% Calm Calm -- 29.70 in1005.8 mb 0.00 in0.0 mm 0.00 in0.0 mm 0.04 in1.0 mm
03:48 AM 36.1°F2.3°C 16.1°F-8.8°C 44% Calm Calm 0.6 mph1.0 kmh 29.71 in1006.1 mb 0.01 in0.3 mm 0.05 in1.3 mm 0.05 in1.3 mm
04:03 AM 36.3°F2.4°C 16.3°F-8.7°C 44% Calm Calm -- 29.71 in1006.1 mb 0.01 in0.3 mm 0.00 in0.0 mm 0.05 in1.3 mm
04:18 AM 36.3°F2.4°C 16.3°F-8.7°C 44% Calm Calm 0.6 mph1.0 kmh 29.71 in1006.1 mb 0.00 in0.0 mm 0.00 in0.0 mm 0.05 in1.3 mm
04:33 AM 36.1°F2.3°C 16.1°F-8.8°C 44% Calm Calm -- 29.73 in1006.8 mb 0.00 in0.0 mm 0.00 in0.0 mm 0.05 in1.3 mm
04:48 AM 36.1°F2.3°C 16.1°F-8.8°C 44% Calm Calm -- 29.73 in1006.8 mb 0.00 in0.0 mm 0.00 in0.0 mm 0.05 in1.3 mm
05:03 AM 36.3°F2.4°C 16.3°F-8.7°C 44% Calm Calm -- 29.74 in1007.1 mb 0.00 in0.0 mm 0.00 in0.0 mm 0.05 in1.3 mm
05:18 AM 36.3°F2.4°C 16.3°F-8.7°C 44% Calm Calm -- 29.75 in1007.5 mb 0.01 in0.3 mm 0.05 in1.3 mm 0.06 in1.5 mm
05:33 AM 36.5°F2.5°C 16.4°F-8.7°C 44% Calm Calm -- 29.75 in1007.5 mb 0.01 in0.3 mm 0.00 in0.0 mm 0.06 in1.5 mm
05:48 AM 36.3°F2.4°C 16.3°F-8.7°C 44% Calm Calm 0.6 mph1.0 kmh 29.76 in1007.8 mb 0.01 in0.3 mm 0.00 in0.0 mm 0.06 in1.5 mm
06:01 AM 36.3°F2.4°C 16.3°F-8.7°C 44% Calm Calm 0.6 mph1.0 kmh 29.76 in1007.8 mb 0.01 in0.3 mm 0.00 in0.0 mm 0.06 in1.5 mm
06:18 AM 36.5°F2.5°C 16.4°F-8.7°C 44% Calm Calm -- 29.77 in1008.1 mb 0.00 in0.0 mm 0.00 in0.0 mm 0.06 in1.5 mm
06:33 AM 36.3°F2.4°C 16.3°F-8.7°C 44% Calm Calm 0.6 mph1.0 kmh 29.77 in1008.1 mb 0.00 in0.0 mm 0.00 in0.0 mm 0.06 in1.5 mm
06:48 AM 36.3°F2.4°C 16.3°F-8.7°C 44% Calm Calm -- 29.77 in1008.1 mb 0.00 in0.0 mm 0.00 in0.0 mm 0.06 in1.5 mm
07:03 AM 36.3°F2.4°C 16.3°F-8.7°C 44% Calm Calm -- 29.78 in1008.5 mb 0.00 in0.0 mm 0.00 in0.0 mm 0.06 in1.5 mm
07:18 AM 36.3°F2.4°C 16.3°F-8.7°C 44% Calm Calm -- 29.78 in1008.5 mb 0.00 in0.0 mm 0.00 in0.0 mm 0.06 in1.5 mm
07:33 AM 36.3°F2.4°C 16.3°F-8.7°C 44% Calm Calm -- 29.78 in1008.5 mb 0.00 in0.0 mm 0.00 in0.0 mm 0.06 in1.5 mm
07:48 AM 36.5°F2.5°C 16.4°F-8.7°C 44% Calm Calm -- 29.78 in1008.5 mb 0.00 in0.0 mm 0.00 in0.0 mm 0.06 in1.5 mm
08:03 AM 36.5°F2.5°C 16.4°F-8.7°C 44% Calm Calm -- 29.78 in1008.5 mb 0.01 in0.3 mm 0.02 in0.5 mm 0.07 in1.8 mm
08:18 AM 36.5°F2.5°C 16.4°F-8.7°C 44% Calm Calm 1.4 mph2.3 kmh 29.78 in1008.5 mb 0.00 in0.0 mm 0.00 in0.0 mm 0.07 in1.8 mm
08:33 AM 36.9°F2.7°C 16.8°F-8.4°C 44% Calm Calm -- 29.79 in1008.8 mb 0.00 in0.0 mm 0.00 in0.0 mm 0.07 in1.8 mm
08:48 AM 37.6°F3.1°C 17.4°F-8.1°C 44% Calm Calm -- 29.79 in1008.8 mb 0.00 in0.0 mm 0.00 in0.0 mm 0.07 in1.8 mm
09:02 AM 37.6°F3.1°C 17.4°F-8.1°C 44% Calm Calm -- 29.79 in1008.8 mb 0.00 in0.0 mm 0.00 in0.0 mm 0.07 in1.8 mm
09:18 AM 39.7°F4.3°C 19.9°F-6.7°C 45% Calm Calm -- 29.80 in1009.1 mb 0.00 in0.0 mm 0.00 in0.0 mm 0.07 in1.8 mm
09:33 AM 45.1°F7.3°C 25.9°F-3.4°C 47% Calm Calm -- 29.81 in1009.5 mb 0.00 in0.0 mm 0.00 in0.0 mm 0.07 in1.8 mm
09:48 AM 44.6°F7.0°C 25.9°F-3.4°C 48% Calm Calm -- 29.81 in1009.5 mb 0.01 in0.3 mm 0.05 in1.3 mm 0.09 in2.3 mm
10:03 AM 41.9°F5.5°C 22.9°F-5.1°C 47% Calm Calm -- 29.82 in1009.8 mb 0.01 in0.3 mm 0.00 in0.0 mm 0.09 in2.3 mm
10:18 AM 40.1°F4.5°C 20.8°F-6.2°C 46% Calm Calm -- 29.82 in1009.8 mb 0.00 in0.0 mm 0.00 in0.0 mm 0.09 in2.3 mm
10:33 AM 39.6°F4.2°C 20.3°F-6.5°C 46% Calm Calm -- 29.82 in1009.8 mb 0.00 in0.0 mm 0.00 in0.0 mm 0.09 in2.3 mm
10:48 AM 39.0°F3.9°C 19.8°F-6.8°C 46% Calm Calm 0.6 mph1.0 kmh 29.82 in1009.8 mb 0.00 in0.0 mm 0.00 in0.0 mm 0.09 in2.3 mm
11:03 AM 39.2°F4.0°C 20.0°F-6.7°C 46% Calm Calm 0.6 mph1.0 kmh 29.82 in1009.8 mb 0.00 in0.0 mm 0.00 in0.0 mm 0.09 in2.3 mm
11:18 AM 39.0°F3.9°C 19.8°F-6.8°C 46% Calm Calm -- 29.82 in1009.8 mb 0.00 in0.0 mm 0.00 in0.0 mm 0.09 in2.3 mm
11:33 AM 39.6°F4.2°C 20.3°F-6.5°C 46% Calm Calm -- 29.82 in1009.8 mb 0.00 in0.0 mm 0.00 in0.0 mm 0.09 in2.3 mm
11:48 AM 39.2°F4.0°C 19.4°F-7.0°C 45% Calm Calm -- 29.82 in1009.8 mb 0.00 in0.0 mm 0.00 in0.0 mm 0.09 in2.3 mm
12:03 PM 38.8°F3.8°C 19.1°F-7.2°C 45% Calm Calm -- 29.82 in1009.8 mb 0.00 in0.0 mm 0.00 in0.0 mm 0.09 in2.3 mm
12:18 PM 38.3°F3.5°C 18.1°F-7.7°C 44% Calm Calm -- 29.82 in1009.8 mb 0.00 in0.0 mm 0.00 in0.0 mm 0.09 in2.3 mm
12:33 PM 37.9°F3.3°C 17.2°F-8.2°C 43% Calm Calm -- 29.82 in1009.8 mb 0.00 in0.0 mm 0.00 in0.0 mm 0.09 in2.3 mm
12:48 PM 37.8°F3.2°C 16.5°F-8.6°C 42% Calm Calm -- 29.82 in1009.8 mb 0.00 in0.0 mm 0.00 in0.0 mm 0.09 in2.3 mm
01:03 PM 37.8°F3.2°C 16.5°F-8.6°C 42% Calm Calm -- 29.82 in1009.8 mb 0.00 in0.0 mm 0.00 in0.0 mm 0.09 in2.3 mm
01:18 PM 37.9°F3.3°C 16.1°F-8.8°C 41% Calm Calm -- 29.82 in1009.8 mb 0.00 in0.0 mm 0.00 in0.0 mm 0.09 in2.3 mm
01:33 PM 37.9°F3.3°C 16.1°F-8.8°C 41% Calm Calm -- 29.83 in1010.2 mb 0.00 in0.0 mm 0.00 in0.0 mm 0.09 in2.3 mm
01:48 PM 38.1°F3.4°C 15.7°F-9.1°C 40% Calm Calm -- 29.83 in1010.2 mb 0.00 in0.0 mm 0.00 in0.0 mm 0.09 in2.3 mm
02:03 PM 38.3°F3.5°C 15.9°F-8.9°C 40% Calm Calm -- 29.84 in1010.5 mb 0.00 in0.0 mm 0.00 in0.0 mm 0.09 in2.3 mm
02:18 PM 37.8°F3.2°C 14.8°F-9.6°C 39% Calm Calm -- 29.84 in1010.5 mb 0.00 in0.0 mm 0.00 in0.0 mm 0.09 in2.3 mm
02:33 PM 37.6°F3.1°C 14.0°F-10.0°C 38% Calm Calm -- 29.84 in1010.5 mb 0.00 in0.0 mm 0.00 in0.0 mm 0.09 in2.3 mm
02:48 PM 37.4°F3.0°C 13.3°F-10.4°C 37% Calm Calm -- 29.85 in1010.8 mb 0.00 in0.0 mm 0.00 in0.0 mm 0.09 in2.3 mm
03:03 PM 37.2°F2.9°C 12.5°F-10.8°C 36% Calm Calm -- 29.85 in1010.8 mb 0.00 in0.0 mm 0.00 in0.0 mm 0.09 in2.3 mm
03:18 PM 37.2°F2.9°C 11.8°F-11.2°C 35% Calm Calm -- 29.85 in1010.8 mb 0.00 in0.0 mm 0.00 in0.0 mm 0.09 in2.3 mm
03:33 PM 37.0°F2.8°C 11.0°F-11.7°C 34% Calm Calm -- 29.85 in1010.8 mb 0.00 in0.0 mm 0.00 in0.0 mm 0.09 in2.3 mm
03:48 PM 36.7°F2.6°C 10.0°F-12.2°C 33% Calm Calm -- 29.85 in1010.8 mb 0.00 in0.0 mm 0.00 in0.0 mm 0.09 in2.3 mm
04:03 PM 36.7°F2.6°C 10.0°F-12.2°C 33% Calm Calm -- 29.85 in1010.8 mb 0.00 in0.0 mm 0.00 in0.0 mm 0.09 in2.3 mm
04:18 PM 36.9°F2.7°C 10.2°F-12.1°C 33% Calm Calm -- 29.85 in1010.8 mb 0.00 in0.0 mm 0.00 in0.0 mm 0.09 in2.3 mm
04:33 PM 36.5°F2.5°C 9.9°F-12.3°C 33% Calm Calm -- 29.85 in1010.8 mb 0.00 in0.0 mm 0.00 in0.0 mm 0.09 in2.3 mm
04:48 PM 36.7°F2.6°C 10.0°F-12.2°C 33% Calm Calm -- 29.86 in1011.2 mb 0.00 in0.0 mm 0.00 in0.0 mm 0.09 in2.3 mm
05:03 PM 36.9°F2.7°C 9.5°F-12.5°C 32% Calm Calm -- 29.86 in1011.2 mb 0.00 in0.0 mm 0.00 in0.0 mm 0.09 in2.3 mm
05:18 PM 36.7°F2.6°C 9.4°F-12.6°C 32% Calm Calm -- 29.86 in1011.2 mb 0.00 in0.0 mm 0.00 in0.0 mm 0.09 in2.3 mm
05:33 PM 36.7°F2.6°C 9.4°F-12.6°C 32% Calm Calm -- 29.86 in1011.2 mb 0.00 in0.0 mm 0.00 in0.0 mm 0.09 in2.3 mm
05:48 PM 36.5°F2.5°C 9.2°F-12.7°C 32% Calm Calm -- 29.86 in1011.2 mb 0.00 in0.0 mm 0.00 in0.0 mm 0.09 in2.3 mm
06:03 PM 36.3°F2.4°C 8.3°F-13.2°C 31% Calm Calm -- 29.86 in1011.2 mb 0.00 in0.0 mm 0.00 in0.0 mm 0.09 in2.3 mm
06:18 PM 36.3°F2.4°C 8.3°F-13.2°C 31% Calm Calm -- 29.86 in1011.2 mb 0.00 in0.0 mm 0.00 in0.0 mm 0.09 in2.3 mm
06:33 PM 36.1°F2.3°C 8.2°F-13.2°C 31% Calm Calm -- 29.86 in1011.2 mb 0.00 in0.0 mm 0.00 in0.0 mm 0.09 in2.3 mm
06:48 PM 36.1°F2.3°C 8.2°F-13.2°C 31% Calm Calm -- 29.86 in1011.2 mb 0.00 in0.0 mm 0.00 in0.0 mm 0.09 in2.3 mm
07:03 PM 36.1°F2.3°C 8.2°F-13.2°C 31% Calm Calm -- 29.86 in1011.2 mb 0.00 in0.0 mm 0.00 in0.0 mm 0.09 in2.3 mm
07:18 PM 36.0°F2.2°C 8.0°F-13.3°C 31% Calm Calm -- 29.86 in1011.2 mb 0.00 in0.0 mm 0.00 in0.0 mm 0.09 in2.3 mm
07:33 PM 36.1°F2.3°C 8.2°F-13.2°C 31% Calm Calm -- 29.87 in1011.5 mb 0.00 in0.0 mm 0.00 in0.0 mm 0.09 in2.3 mm
07:48 PM 36.1°F2.3°C 8.2°F-13.2°C 31% Calm Calm -- 29.87 in1011.5 mb 0.00 in0.0 mm 0.00 in0.0 mm 0.09 in2.3 mm
08:03 PM 36.1°F2.3°C 8.2°F-13.2°C 31% Calm Calm -- 29.88 in1011.9 mb 0.00 in0.0 mm 0.00 in0.0 mm 0.09 in2.3 mm
08:18 PM 36.0°F2.2°C 8.0°F-13.3°C 31% Calm Calm -- 29.88 in1011.9 mb 0.00 in0.0 mm 0.00 in0.0 mm 0.09 in2.3 mm
08:33 PM 36.3°F2.4°C 8.3°F-13.2°C 31% Calm Calm -- 29.88 in1011.9 mb 0.00 in0.0 mm 0.00 in0.0 mm 0.09 in2.3 mm
08:53 PM 36.1°F2.3°C 8.2°F-13.2°C 31% Calm Calm -- 29.88 in1011.9 mb 0.00 in0.0 mm 0.00 in0.0 mm 0.09 in2.3 mm
09:03 PM 36.3°F2.4°C 8.3°F-13.2°C 31% Calm Calm -- 29.88 in1011.9 mb 0.00 in0.0 mm 0.00 in0.0 mm 0.09 in2.3 mm
09:18 PM 36.1°F2.3°C 8.2°F-13.2°C 31% Calm Calm -- 29.89 in1012.2 mb 0.00 in0.0 mm 0.00 in0.0 mm 0.09 in2.3 mm
09:33 PM 36.0°F2.2°C 8.0°F-13.3°C 31% Calm Calm -- 29.88 in1011.9 mb 0.00 in0.0 mm 0.00 in0.0 mm 0.09 in2.3 mm
09:48 PM 36.0°F2.2°C 8.7°F-12.9°C 32% Calm Calm -- 29.88 in1011.9 mb 0.00 in0.0 mm 0.00 in0.0 mm 0.09 in2.3 mm
10:03 PM 36.0°F2.2°C 8.7°F-12.9°C 32% Calm Calm -- 29.88 in1011.9 mb 0.00 in0.0 mm 0.00 in0.0 mm 0.09 in2.3 mm
10:18 PM 36.1°F2.3°C 8.9°F-12.8°C 32% Calm Calm -- 29.88 in1011.9 mb 0.00 in0.0 mm 0.00 in0.0 mm 0.09 in2.3 mm
10:33 PM 35.8°F2.1°C 8.6°F-13.0°C 32% Calm Calm -- 29.88 in1011.9 mb 0.00 in0.0 mm 0.00 in0.0 mm 0.09 in2.3 mm
10:48 PM 36.0°F2.2°C 8.7°F-12.9°C 32% Calm Calm -- 29.87 in1011.5 mb 0.00 in0.0 mm 0.00 in0.0 mm 0.09 in2.3 mm
11:03 PM 36.0°F2.2°C 8.7°F-12.9°C 32% Calm Calm -- 29.88 in1011.9 mb 0.00 in0.0 mm 0.00 in0.0 mm 0.09 in2.3 mm
11:18 PM 36.0°F2.2°C 8.7°F-12.9°C 32% Calm Calm -- 29.88 in1011.9 mb 0.00 in0.0 mm 0.00 in0.0 mm 0.09 in2.3 mm
11:33 PM 36.3°F2.4°C 9.0°F-12.8°C 32% Calm Calm -- 29.88 in1011.9 mb 0.00 in0.0 mm 0.00 in0.0 mm 0.09 in2.3 mm
11:48 PM 36.1°F2.3°C 8.9°F-12.8°C 32% Calm Calm -- 29.88 in1011.9 mb 0.00 in0.0 mm 0.00 in0.0 mm 0.09 in2.3 mm